Time;durP1;ratioP1;P1;durP2;ratioP2;P2;SDS_P1;SDS_P2;PMS_P1;PMS_P2;Temp;Humidity;BMP_temperature;BMP_pressure;BME280_temperature;BME280_humidity;BME280_pressure;Samples;Min_cycle;Max_cycle;Signal;HPM_P1;HPM_P2
2024/02/18 00:02:02;;;;;;;7.03;3.38;;;11.90;99.90;;;;;;5040888;28;20021;-33
2024/02/18 00:04:31;;;;;;;4.70;2.75;;;11.80;99.90;;;;;;5040818;28;20486;-37
2024/02/18 00:06:57;;;;;;;4.57;3.20;;;11.80;99.90;;;;;;5040374;28;20103;-33
2024/02/18 00:09:22;;;;;;;5.55;3.67;;;11.80;99.90;;;;;;5040891;28;20028;-37
2024/02/18 00:11:48;;;;;;;5.88;3.17;;;11.80;99.90;;;;;;5040704;28;20061;-36
2024/02/18 00:14:13;;;;;;;3.90;3.30;;;11.80;99.90;;;;;;5040095;28;20074;-38
2024/02/18 00:16:39;;;;;;;3.03;2.72;;;11.80;99.90;;;;;;5040739;28;20024;-36
2024/02/18 00:19:04;;;;;;;5.70;2.70;;;11.80;99.90;;;;;;5040721;28;20476;-34
2024/02/18 00:21:30;;;;;;;3.20;2.50;;;11.80;99.90;;;;;;5040084;28;20773;-38
2024/02/18 00:23:59;;;;;;;4.53;2.50;;;11.80;99.90;;;;;;5040282;28;20437;-38
2024/02/18 00:26:25;;;;;;;4.55;2.72;;;11.80;99.90;;;;;;5040393;28;20111;-37
2024/02/18 00:28:51;;;;;;;7.40;3.03;;;11.80;99.90;;;;;;5039970;28;20079;-36
2024/02/18 00:31:16;;;;;;;3.72;2.45;;;11.90;99.90;;;;;;5041041;28;20029;-36
2024/02/18 00:33:42;;;;;;;4.90;2.83;;;11.80;99.90;;;;;;5040189;28;20025;-35
2024/02/18 00:36:12;;;;;;;4.18;2.65;;;11.80;99.90;;;;;;5040772;28;20036;-35
2024/02/18 00:38:37;;;;;;;4.25;2.42;;;11.80;99.90;;;;;;5039766;28;20043;-37
2024/02/18 00:41:05;;;;;;;4.63;2.78;;;11.80;99.90;;;;;;5039424;28;20033;-38
2024/02/18 00:43:30;;;;;;;3.38;2.40;;;11.80;99.90;;;;;;5040124;28;20043;-38
2024/02/18 00:45:56;;;;;;;4.82;2.70;;;11.80;99.90;;;;;;5040288;28;20033;-36
2024/02/18 00:48:21;;;;;;;5.00;2.53;;;11.80;99.90;;;;;;5038571;28;20025;-36
2024/02/18 00:50:48;;;;;;;5.80;3.15;;;11.80;99.90;;;;;;5040574;28;20033;-36
2024/02/18 00:53:13;;;;;;;3.95;3.13;;;11.80;99.90;;;;;;5039723;28;20033;-36
2024/02/18 00:55:43;;;;;;;6.50;3.75;;;11.70;99.90;;;;;;5039772;28;20810;-35
2024/02/18 00:58:12;;;;;;;3.72;3.10;;;11.70;99.90;;;;;;5040033;28;20135;-37
2024/02/18 01:00:39;;;;;;;4.63;2.65;;;11.70;99.90;;;;;;5039747;28;20063;-38
2024/02/18 01:03:06;;;;;;;4.15;2.50;;;11.60;99.90;;;;;;5039005;28;20052;-36
2024/02/18 01:05:32;;;;;;;4.53;2.50;;;11.60;99.90;;;;;;5039893;28;20108;-33
2024/02/18 01:07:57;;;;;;;6.10;2.70;;;11.60;99.90;;;;;;5039757;28;20032;-37
2024/02/18 01:10:23;;;;;;;5.95;2.55;;;11.60;99.90;;;;;;5038993;28;20530;-35
2024/02/18 01:12:49;;;;;;;3.88;2.22;;;11.60;99.90;;;;;;5040870;28;20098;-36
2024/02/18 01:15:15;;;;;;;5.25;2.60;;;11.60;99.90;;;;;;5039616;28;20376;-38
2024/02/18 01:17:41;;;;;;;4.43;2.10;;;11.60;99.90;;;;;;5040071;28;20789;-36
2024/02/18 01:20:07;;;;;;;4.68;2.40;;;11.60;99.90;;;;;;5039152;28;20131;-36
2024/02/18 01:22:33;;;;;;;4.63;2.50;;;11.50;99.90;;;;;;5039328;28;20043;-33
2024/02/18 01:24:59;;;;;;;3.47;2.33;;;11.50;99.90;;;;;;5038852;28;20029;-36
2024/02/18 01:27:25;;;;;;;2.65;2.20;;;11.50;99.90;;;;;;5039315;28;20384;-38
2024/02/18 01:29:53;;;;;;;3.17;2.10;;;11.50;99.90;;;;;;5039181;28;20032;-35
2024/02/18 01:32:19;;;;;;;4.18;2.38;;;11.50;99.90;;;;;;5038764;28;20082;-34
2024/02/18 01:34:44;;;;;;;4.85;2.80;;;11.60;99.90;;;;;;5040040;28;20029;-35
2024/02/18 01:37:10;;;;;;;4.95;2.47;;;11.60;99.90;;;;;;5039157;28;20028;-34
2024/02/18 01:39:36;;;;;;;4.05;2.17;;;11.60;99.90;;;;;;5039678;28;20036;-34
2024/02/18 01:42:02;;;;;;;4.05;2.00;;;11.60;99.90;;;;;;5039818;28;20022;-37
2024/02/18 01:44:27;;;;;;;3.58;2.08;;;11.60;99.90;;;;;;5038863;28;20032;-35
2024/02/18 01:46:53;;;;;;;4.93;2.80;;;11.60;99.90;;;;;;5039414;28;20017;-38
2024/02/18 01:49:19;;;;;;;3.80;1.92;;;11.60;99.90;;;;;;5039666;28;20567;-36
2024/02/18 01:51:45;;;;;;;4.50;2.80;;;11.60;99.90;;;;;;5039554;28;20111;-35
2024/02/18 01:54:11;;;;;;;3.83;2.00;;;11.70;99.90;;;;;;5040152;28;20768;-32
2024/02/18 01:56:41;;;;;;;3.50;1.85;;;11.60;99.90;;;;;;5039617;28;20695;-36
2024/02/18 01:59:07;;;;;;;5.63;2.97;;;11.60;99.90;;;;;;5040216;28;20139;-36
2024/02/18 02:01:33;;;;;;;5.88;2.50;;;11.70;99.90;;;;;;5043354;28;20033;-35
2024/02/18 02:04:00;;;;;;;2.83;2.10;;;11.70;99.90;;;;;;5043360;28;20029;-32
2024/02/18 02:06:29;;;;;;;4.15;2.50;;;11.70;99.90;;;;;;5041985;28;20036;-33
2024/02/18 02:08:55;;;;;;;3.30;1.88;;;11.60;99.90;;;;;;5042682;28;20025;-34
2024/02/18 02:11:21;;;;;;;5.18;2.20;;;11.70;99.90;;;;;;5042447;28;20164;-37
2024/02/18 02:13:46;;;;;;;4.70;2.45;;;11.60;99.90;;;;;;5042540;28;20036;-37
2024/02/18 02:16:12;;;;;;;3.08;2.50;;;11.60;99.90;;;;;;5043081;28;20571;-33
2024/02/18 02:18:37;;;;;;;4.10;2.30;;;11.60;99.90;;;;;;5042856;28;20025;-37
2024/02/18 02:21:03;;;;;;;3.28;2.13;;;11.70;99.90;;;;;;5041934;28;20063;-34
2024/02/18 02:23:31;;;;;;;4.78;2.60;;;11.60;99.90;;;;;;5042976;28;20060;-32
2024/02/18 02:26:07;;;;;;;5.28;2.30;;;11.60;99.90;;;;;;5043270;28;20051;-36
2024/02/18 02:28:41;;;;;;;3.13;1.90;;;11.60;99.90;;;;;;5042278;28;20254;-33
2024/02/18 02:31:06;;;;;;;3.55;2.30;;;11.70;99.90;;;;;;5042690;28;20020;-37
2024/02/18 02:33:32;;;;;;;5.05;2.60;;;11.70;99.90;;;;;;5042308;28;20743;-34
2024/02/18 02:35:58;;;;;;;5.80;2.90;;;11.70;99.90;;;;;;5042870;28;20037;-35
2024/02/18 02:38:23;;;;;;;5.05;2.80;;;11.70;99.90;;;;;;5042760;28;20020;-37
2024/02/18 02:40:49;;;;;;;4.05;2.58;;;11.70;99.90;;;;;;5042643;28;20048;-36
2024/02/18 02:43:16;;;;;;;4.45;2.42;;;11.70;99.90;;;;;;5042559;28;20844;-37
2024/02/18 02:45:42;;;;;;;4.57;2.70;;;11.80;99.90;;;;;;5042656;28;20422;-37
2024/02/18 02:48:07;;;;;;;5.53;3.00;;;11.70;99.90;;;;;;5041542;28;20023;-34
2024/02/18 02:50:33;;;;;;;5.60;2.70;;;11.80;99.90;;;;;;5042040;28;20032;-34
2024/02/18 02:52:59;;;;;;;3.35;2.42;;;11.80;99.90;;;;;;5041984;28;20060;-36
2024/02/18 02:55:24;;;;;;;4.07;2.60;;;11.80;99.90;;;;;;5042158;28;20091;-36
2024/02/18 02:57:52;;;;;;;3.30;2.38;;;11.80;99.90;;;;;;5041937;28;20466;-36
2024/02/18 03:00:18;;;;;;;5.65;2.45;;;11.80;99.90;;;;;;5041817;28;20044;-35
2024/02/18 03:02:44;;;;;;;5.68;2.60;;;11.80;99.90;;;;;;5041937;28;20399;-35
2024/02/18 03:05:12;;;;;;;4.90;2.53;;;11.80;99.90;;;;;;5042094;28;20064;-37
2024/02/18 03:07:38;;;;;;;3.22;2.20;;;11.80;99.90;;;;;;5041484;28;20028;-35
2024/02/18 03:10:04;;;;;;;6.43;2.67;;;11.80;99.90;;;;;;5040616;28;20025;-37
2024/02/18 03:12:30;;;;;;;5.28;2.55;;;11.80;99.90;;;;;;5040480;28;20036;-37
2024/02/18 03:14:57;;;;;;;5.38;2.60;;;11.80;99.90;;;;;;5041762;28;20049;-34
2024/02/18 03:17:23;;;;;;;5.05;3.15;;;11.80;99.90;;;;;;5041092;28;20585;-34
2024/02/18 03:19:48;;;;;;;5.90;2.90;;;11.80;99.90;;;;;;5041451;28;20033;-36
2024/02/18 03:22:21;;;;;;;3.47;2.72;;;11.80;99.90;;;;;;5041407;28;20032;-35
2024/02/18 03:24:48;;;;;;;6.40;2.90;;;11.80;99.90;;;;;;5041240;28;20029;-35
2024/02/18 03:27:14;;;;;;;6.28;2.90;;;11.80;99.90;;;;;;5041459;28;20796;-37
2024/02/18 03:29:40;;;;;;;5.70;2.65;;;11.80;99.90;;;;;;5040725;28;20032;-38
2024/02/18 03:32:06;;;;;;;5.22;2.60;;;11.80;99.90;;;;;;5041457;28;20428;-38
2024/02/18 03:34:34;;;;;;;3.67;2.30;;;11.80;99.90;;;;;;5041076;28;20029;-36
2024/02/18 03:37:00;;;;;;;3.58;2.08;;;11.80;99.90;;;;;;5041114;28;20025;-34
2024/02/18 03:39:25;;;;;;;2.72;2.13;;;11.80;99.90;;;;;;5041182;28;20419;-31
2024/02/18 03:41:51;;;;;;;5.80;2.50;;;11.80;99.90;;;;;;5040951;28;20829;-38
2024/02/18 03:44:16;;;;;;;3.70;2.30;;;11.80;99.90;;;;;;5039937;28;20021;-37
2024/02/18 03:46:43;;;;;;;4.07;2.33;;;11.80;99.90;;;;;;5041869;28;20108;-35
2024/02/18 03:49:09;;;;;;;3.83;2.42;;;11.80;99.90;;;;;;5040950;28;20197;-38
2024/02/18 03:51:35;;;;;;;4.53;2.78;;;11.80;99.90;;;;;;5040477;28;20025;-37
2024/02/18 03:54:01;;;;;;;4.70;2.40;;;11.80;99.90;;;;;;5040701;28;20472;-36
2024/02/18 03:56:26;;;;;;;5.20;2.30;;;11.70;99.90;;;;;;5040983;28;20035;-38
2024/02/18 03:58:52;;;;;;;4.18;2.10;;;11.70;99.90;;;;;;5040151;28;20013;-38
2024/02/18 04:01:17;;;;;;;4.90;2.33;;;11.70;99.90;;;;;;5041025;28;20048;-38
2024/02/18 04:03:46;;;;;;;3.38;2.20;;;11.70;99.90;;;;;;5041445;28;20024;-36
2024/02/18 04:06:12;;;;;;;4.60;2.17;;;11.70;99.90;;;;;;5039825;28;20029;-37
2024/02/18 04:08:37;;;;;;;7.40;2.60;;;11.70;99.90;;;;;;5040537;28;20355;-33
2024/02/18 04:11:03;;;;;;;4.65;2.20;;;11.70;99.90;;;;;;5039839;28;20151;-37
2024/02/18 04:13:28;;;;;;;5.95;2.22;;;11.70;99.90;;;;;;5040140;28;20395;-35
2024/02/18 04:15:54;;;;;;;4.53;2.17;;;11.70;99.90;;;;;;5040307;28;20043;-33
2024/02/18 04:18:20;;;;;;;5.20;2.80;;;11.70;99.90;;;;;;5039949;28;20020;-35
2024/02/18 04:20:46;;;;;;;5.22;3.10;;;11.60;99.90;;;;;;5040195;28;20033;-37
2024/02/18 04:23:11;;;;;;;6.43;2.95;;;11.60;99.90;;;;;;5039875;28;20053;-35
2024/02/18 04:25:37;;;;;;;4.97;2.40;;;11.60;99.90;;;;;;5040612;28;20158;-38
2024/02/18 04:28:02;;;;;;;4.75;2.55;;;11.60;99.90;;;;;;5039305;28;20025;-34
2024/02/18 04:30:28;;;;;;;3.42;2.20;;;11.60;99.90;;;;;;5039878;28;20025;-37
2024/02/18 04:32:54;;;;;;;5.00;2.47;;;11.60;99.90;;;;;;5040085;28;20025;-36
2024/02/18 04:35:19;;;;;;;5.82;2.85;;;11.50;99.90;;;;;;5040465;28;20024;-38
2024/02/18 04:37:45;;;;;;;3.97;2.70;;;11.50;99.90;;;;;;5040736;28;20100;-37
2024/02/18 04:40:12;;;;;;;5.65;2.70;;;11.40;99.90;;;;;;5039685;28;20033;-35
2024/02/18 04:42:37;;;;;;;5.35;2.50;;;11.40;99.90;;;;;;5039760;28;20048;-37
2024/02/18 04:45:04;;;;;;;7.28;2.38;;;11.40;99.90;;;;;;5040320;28;20449;-38
2024/02/18 04:47:31;;;;;;;3.70;2.67;;;11.40;99.90;;;;;;5039014;28;20669;-37
2024/02/18 04:49:56;;;;;;;6.45;2.85;;;11.40;99.90;;;;;;5039807;28;20064;-35
2024/02/18 04:52:22;;;;;;;4.57;3.15;;;11.40;99.90;;;;;;5039248;28;20029;-35
2024/02/18 04:54:47;;;;;;;5.28;2.50;;;11.40;99.90;;;;;;5039374;28;20106;-32
2024/02/18 04:57:14;;;;;;;4.95;2.42;;;11.40;99.90;;;;;;5039658;28;20079;-37
2024/02/18 04:59:39;;;;;;;3.72;2.25;;;11.40;99.90;;;;;;5039644;28;20028;-37
2024/02/18 05:02:07;;;;;;;6.05;2.60;;;11.30;99.90;;;;;;5039535;28;20029;-37
2024/02/18 05:04:33;;;;;;;4.53;2.97;;;11.30;99.90;;;;;;5039786;28;20183;-36
2024/02/18 05:06:59;;;;;;;3.88;2.65;;;11.30;99.90;;;;;;5039961;28;20116;-36
2024/02/18 05:09:25;;;;;;;6.28;2.65;;;11.30;99.90;;;;;;5039619;28;20029;-37
2024/02/18 05:11:50;;;;;;;3.58;2.20;;;11.30;99.90;;;;;;5039193;28;20040;-37
2024/02/18 05:14:16;;;;;;;3.38;2.17;;;11.30;99.90;;;;;;5040097;28;20431;-35
2024/02/18 05:16:44;;;;;;;6.03;3.05;;;11.20;99.90;;;;;;5039539;28;20534;-35
2024/02/18 05:19:10;;;;;;;4.35;2.92;;;11.20;99.90;;;;;;5039961;28;20142;-32
2024/02/18 05:21:39;;;;;;;4.57;2.17;;;11.10;99.90;;;;;;5039498;28;20472;-36
2024/02/18 05:24:05;;;;;;;5.68;3.30;;;11.10;99.90;;;;;;5035456;28;20017;-36
2024/02/18 05:26:31;;;;;;;4.43;2.55;;;11.10;99.90;;;;;;5039441;28;20033;-34
2024/02/18 05:28:57;;;;;;;4.00;2.50;;;11.10;99.90;;;;;;5038935;28;20776;-36
2024/02/18 05:31:24;;;;;;;4.32;2.60;;;11.10;99.90;;;;;;5038512;28;20032;-33
2024/02/18 05:33:51;;;;;;;6.13;3.05;;;11.00;99.90;;;;;;5038521;28;20448;-35
2024/02/18 05:36:25;;;;;;;6.80;3.13;;;11.00;99.90;;;;;;5038187;28;20025;-37
2024/02/18 05:38:51;;;;;;;5.68;2.90;;;11.00;99.90;;;;;;5038972;28;20396;-36
2024/02/18 05:41:17;;;;;;;6.10;2.75;;;11.00;99.90;;;;;;5039629;28;20044;-33
2024/02/18 05:43:43;;;;;;;3.45;2.67;;;10.90;99.90;;;;;;5038869;28;20021;-33
2024/02/18 05:46:09;;;;;;;5.40;2.90;;;10.90;99.90;;;;;;5039078;28;20037;-34
2024/02/18 05:48:35;;;;;;;4.25;2.80;;;10.90;99.90;;;;;;5039991;28;20047;-36
2024/02/18 05:51:02;;;;;;;6.25;3.50;;;11.00;99.90;;;;;;5038988;28;20021;-33
2024/02/18 05:53:27;;;;;;;4.50;2.70;;;11.00;99.90;;;;;;5039058;28;20758;-34
2024/02/18 05:55:53;;;;;;;3.88;2.38;;;11.00;99.90;;;;;;5038998;28;20029;-33
2024/02/18 05:58:19;;;;;;;3.95;2.30;;;10.90;99.90;;;;;;5037698;28;20227;-36
2024/02/18 06:00:45;;;;;;;3.42;2.60;;;10.90;99.90;;;;;;5038844;28;20920;-32
2024/02/18 06:03:10;;;;;;;4.57;2.80;;;11.00;99.90;;;;;;5038159;28;20024;-36
2024/02/18 06:05:36;;;;;;;9.20;3.00;;;10.90;99.90;;;;;;5038527;28;20025;-33
2024/02/18 06:08:02;;;;;;;6.15;2.67;;;10.90;99.90;;;;;;5038971;28;20025;-32
2024/02/18 06:10:29;;;;;;;5.13;3.03;;;10.90;99.90;;;;;;5038259;28;20082;-36
2024/02/18 06:12:56;;;;;;;5.97;3.17;;;10.90;99.90;;;;;;5038131;28;20029;-36
2024/02/18 06:15:21;;;;;;;4.72;3.30;;;10.90;99.90;;;;;;5038901;28;20056;-37
2024/02/18 06:17:47;;;;;;;6.28;2.97;;;10.90;99.90;;;;;;5039962;28;20540;-37
2024/02/18 06:20:13;;;;;;;5.07;2.90;;;10.90;99.90;;;;;;5038354;28;20040;-36
2024/02/18 06:22:39;;;;;;;5.80;2.83;;;10.90;99.90;;;;;;5038430;28;20041;-37
2024/02/18 06:25:05;;;;;;;5.32;3.13;;;10.90;99.90;;;;;;5038498;28;20480;-38
2024/02/18 06:27:31;;;;;;;4.82;2.78;;;10.90;99.90;;;;;;5038063;28;20032;-37
2024/02/18 06:29:58;;;;;;;4.85;2.83;;;10.90;99.90;;;;;;5039344;28;20057;-37
2024/02/18 06:32:24;;;;;;;7.63;3.03;;;10.90;99.90;;;;;;5038076;28;20044;-37
2024/02/18 06:34:50;;;;;;;5.72;3.20;;;10.90;99.90;;;;;;5038633;28;20087;-37
2024/02/18 06:37:16;;;;;;;6.68;2.65;;;10.90;99.90;;;;;;5038086;28;20033;-38
2024/02/18 06:39:42;;;;;;;3.65;2.30;;;10.90;99.90;;;;;;5037851;28;20027;-36
2024/02/18 06:42:08;;;;;;;5.60;3.17;;;10.80;99.90;;;;;;5038572;28;20038;-33
2024/02/18 06:44:33;;;;;;;7.40;2.70;;;10.80;99.90;;;;;;5038683;28;20028;-33
2024/02/18 06:46:59;;;;;;;6.13;3.30;;;10.70;99.90;;;;;;5039682;28;20137;-37
2024/02/18 06:49:24;;;;;;;6.47;3.05;;;10.70;99.90;;;;;;5041801;28;20462;-37
2024/02/18 06:51:50;;;;;;;7.53;3.40;;;10.70;99.90;;;;;;5041502;28;20025;-37
2024/02/18 06:54:15;;;;;;;5.25;2.45;;;10.70;99.90;;;;;;5041525;28;20103;-36
2024/02/18 06:56:41;;;;;;;5.18;2.70;;;10.70;99.90;;;;;;5042114;28;20060;-36
2024/02/18 06:59:07;;;;;;;7.00;3.08;;;10.70;99.90;;;;;;5042413;28;20562;-33
2024/02/18 07:01:33;;;;;;;4.95;3.30;;;10.70;99.90;;;;;;5041125;28;20037;-33
2024/02/18 07:04:00;;;;;;;8.35;2.92;;;10.70;99.90;;;;;;5041493;28;20028;-38
2024/02/18 07:06:25;;;;;;;6.07;3.15;;;10.70;99.90;;;;;;5040920;28;20033;-36
2024/02/18 07:08:51;;;;;;;3.42;2.70;;;10.70;99.90;;;;;;5041209;28;20048;-32
2024/02/18 07:11:16;;;;;;;4.05;2.58;;;10.70;99.90;;;;;;5040973;28;20143;-33
2024/02/18 07:13:42;;;;;;;5.38;3.00;;;10.70;99.90;;;;;;5042207;28;20035;-32
2024/02/18 07:16:08;;;;;;;6.00;3.00;;;10.70;99.90;;;;;;5041089;28;20139;-34
2024/02/18 07:18:33;;;;;;;5.03;3.08;;;10.70;99.90;;;;;;5041527;28;20056;-34
2024/02/18 07:20:59;;;;;;;5.43;2.42;;;10.60;99.90;;;;;;5041543;28;20069;-36
2024/02/18 07:23:25;;;;;;;4.15;2.50;;;10.60;99.90;;;;;;5040904;28;20029;-31
2024/02/18 07:25:50;;;;;;;5.57;2.78;;;10.70;99.90;;;;;;5041908;28;20551;-36
2024/02/18 07:28:16;;;;;;;3.80;2.28;;;10.60;99.90;;;;;;5041474;28;20375;-33
2024/02/18 07:30:41;;;;;;;5.70;2.90;;;10.60;99.90;;;;;;5040877;28;20097;-35
2024/02/18 07:33:07;;;;;;;6.68;2.80;;;10.60;99.90;;;;;;5041483;28;20021;-32
2024/02/18 07:35:33;;;;;;;4.88;2.40;;;10.60;99.90;;;;;;5042225;28;20025;-32
2024/02/18 07:37:59;;;;;;;5.60;2.53;;;10.60;99.90;;;;;;5040646;28;20116;-36
2024/02/18 07:40:25;;;;;;;7.55;2.50;;;10.60;99.90;;;;;;5041177;28;20454;-34
2024/02/18 07:42:50;;;;;;;4.95;2.47;;;10.60;99.90;;;;;;5040627;28;20029;-36
2024/02/18 07:45:16;;;;;;;5.95;2.40;;;10.60;99.90;;;;;;5040757;28;20074;-37
2024/02/18 07:47:41;;;;;;;3.70;2.47;;;10.60;99.90;;;;;;5041085;28;20017;-34
2024/02/18 07:50:07;;;;;;;7.07;2.00;;;10.60;99.90;;;;;;5040827;28;20040;-35
2024/02/18 07:52:33;;;;;;;4.35;2.40;;;10.60;99.90;;;;;;5041111;28;20894;-37
2024/02/18 07:54:59;;;;;;;4.40;2.40;;;10.60;99.90;;;;;;5041056;28;20025;-38
2024/02/18 07:57:25;;;;;;;7.50;2.40;;;10.60;99.90;;;;;;5039585;28;20025;-34
2024/02/18 07:59:50;;;;;;;5.65;2.50;;;10.60;99.90;;;;;;5041032;28;20032;-36
2024/02/18 08:02:16;;;;;;;3.85;2.20;;;10.60;99.90;;;;;;5040641;28;20044;-37
2024/02/18 08:04:42;;;;;;;4.70;2.40;;;10.60;99.90;;;;;;5040492;28;20025;-37
2024/02/18 08:07:08;;;;;;;5.90;2.72;;;10.60;99.90;;;;;;5040768;28;20032;-38
2024/02/18 08:09:36;;;;;;;4.50;2.65;;;10.60;99.90;;;;;;5040166;28;20800;-36
2024/02/18 08:12:02;;;;;;;7.53;2.83;;;10.60;99.90;;;;;;5040291;28;20053;-37
2024/02/18 08:14:27;;;;;;;4.82;2.45;;;10.60;99.90;;;;;;5040213;28;20056;-34
2024/02/18 08:16:55;;;;;;;4.57;1.95;;;10.50;99.90;;;;;;5040758;28;20029;-36
2024/02/18 08:19:20;;;;;;;3.88;2.17;;;10.60;99.90;;;;;;5039798;28;20078;-36
2024/02/18 08:21:46;;;;;;;4.68;2.50;;;10.60;99.90;;;;;;5040757;28;20032;-35
2024/02/18 08:24:11;;;;;;;5.70;3.20;;;10.60;99.90;;;;;;5040499;28;20021;-34
2024/02/18 08:26:37;;;;;;;6.20;3.20;;;10.60;99.90;;;;;;5038809;28;20118;-37
2024/02/18 08:29:02;;;;;;;3.85;2.88;;;10.50;99.90;;;;;;5038443;28;20021;-37
2024/02/18 08:31:28;;;;;;;4.20;2.58;;;10.50;99.90;;;;;;5038872;28;20686;-35
2024/02/18 08:33:54;;;;;;;4.25;2.35;;;10.50;99.90;;;;;;5038721;28;20135;-34
2024/02/18 08:36:19;;;;;;;5.72;2.40;;;10.50;99.90;;;;;;5040512;28;20029;-37
2024/02/18 08:38:47;;;;;;;5.53;2.60;;;10.50;99.90;;;;;;5040606;28;20023;-35
2024/02/18 08:41:13;;;;;;;3.88;2.72;;;10.50;99.90;;;;;;5039498;28;20844;-33
2024/02/18 08:43:42;;;;;;;5.40;3.40;;;10.50;99.90;;;;;;5040141;28;20023;-36
2024/02/18 08:46:11;;;;;;;7.82;3.20;;;10.50;99.90;;;;;;5039167;28;20033;-35
2024/02/18 08:48:37;;;;;;;4.22;2.60;;;10.50;99.90;;;;;;5039966;28;20025;-39
2024/02/18 08:51:09;;;;;;;5.07;2.65;;;10.50;99.90;;;;;;5039772;28;20024;-36
2024/02/18 08:53:36;;;;;;;6.72;3.05;;;10.40;99.90;;;;;;5039690;28;20025;-37
2024/02/18 08:56:03;;;;;;;6.50;3.13;;;10.40;99.90;;;;;;5039031;28;20475;-34
2024/02/18 08:58:33;;;;;;;6.32;2.97;;;10.30;99.90;;;;;;5039809;28;21124;-37
2024/02/18 09:00:58;;;;;;;5.72;2.95;;;10.30;99.90;;;;;;5038319;28;20558;-32
2024/02/18 09:03:27;;;;;;;6.90;3.08;;;10.30;99.90;;;;;;5039315;28;20029;-37
2024/02/18 09:05:52;;;;;;;4.50;2.88;;;10.30;99.90;;;;;;5040005;28;20067;-36
2024/02/18 09:08:20;;;;;;;3.53;2.35;;;10.20;99.90;;;;;;5038802;28;20124;-37
2024/02/18 09:10:46;;;;;;;4.07;2.70;;;10.30;99.90;;;;;;5038790;28;20052;-37
2024/02/18 09:13:12;;;;;;;6.18;3.08;;;10.30;99.90;;;;;;5039636;28;20063;-36
2024/02/18 09:15:37;;;;;;;4.75;2.92;;;10.30;99.90;;;;;;5039539;28;20123;-35
2024/02/18 09:18:03;;;;;;;4.05;2.95;;;10.30;99.90;;;;;;5040098;28;20440;-36
2024/02/18 09:20:29;;;;;;;5.97;2.95;;;10.20;99.90;;;;;;5040196;28;20064;-32
2024/02/18 09:22:55;;;;;;;4.25;2.85;;;10.20;99.90;;;;;;5039179;28;20027;-35
2024/02/18 09:25:21;;;;;;;5.32;2.80;;;10.20;99.90;;;;;;5039171;28;20543;-36
2024/02/18 09:27:47;;;;;;;5.95;2.75;;;10.20;99.90;;;;;;5039343;28;20546;-38
2024/02/18 09:30:13;;;;;;;6.18;3.55;;;10.10;99.90;;;;;;5037994;28;20071;-37
2024/02/18 09:32:44;;;;;;;4.90;2.63;;;10.10;99.90;;;;;;5039399;28;20013;-38
2024/02/18 09:35:12;;;;;;;5.35;2.60;;;10.10;99.90;;;;;;5039680;28;20040;-37
2024/02/18 09:37:37;;;;;;;4.60;2.80;;;10.20;99.90;;;;;;5038533;28;20017;-34
2024/02/18 09:40:04;;;;;;;5.95;3.60;;;10.20;99.90;;;;;;5039204;28;20040;-35
2024/02/18 09:42:35;;;;;;;7.95;3.40;;;10.20;99.90;;;;;;5038077;28;20115;-39
2024/02/18 09:45:02;;;;;;;4.07;3.13;;;10.20;99.90;;;;;;5039168;28;20108;-39
2024/02/18 09:47:30;;;;;;;4.57;3.17;;;10.20;99.90;;;;;;5039458;28;20103;-34
2024/02/18 09:49:57;;;;;;;4.53;3.00;;;10.20;99.90;;;;;;5039087;28;20029;-34
2024/02/18 09:52:24;;;;;;;6.97;3.10;;;10.20;99.90;;;;;;5038484;28;20029;-36
2024/02/18 09:54:51;;;;;;;5.85;2.80;;;10.10;99.90;;;;;;5039403;28;20040;-36
2024/02/18 09:57:17;;;;;;;3.78;2.85;;;10.10;99.90;;;;;;5037771;28;20029;-37
2024/02/18 09:59:52;;;;;;;6.25;2.80;;;10.10;99.90;;;;;;5039448;28;20060;-36
2024/02/18 10:02:24;;;;;;;7.55;3.38;;;10.10;99.90;;;;;;5038608;28;20048;-38
2024/02/18 10:04:49;;;;;;;5.43;2.65;;;10.20;99.90;;;;;;5039005;28;20054;-38
2024/02/18 10:07:15;;;;;;;4.78;2.58;;;10.10;99.90;;;;;;5039015;28;20029;-38
2024/02/18 10:09:43;;;;;;;5.88;2.80;;;10.10;99.90;;;;;;5039243;28;20540;-33
2024/02/18 10:12:10;;;;;;;3.50;2.50;;;10.20;99.90;;;;;;5038101;28;20128;-36
2024/02/18 10:14:38;;;;;;;3.85;2.88;;;10.20;99.90;;;;;;5039021;28;20040;-37
2024/02/18 10:17:04;;;;;;;6.35;3.80;;;10.20;99.90;;;;;;5037988;28;20029;-37
2024/02/18 10:19:29;;;;;;;8.25;3.28;;;10.20;99.90;;;;;;5038138;28;20032;-36
2024/02/18 10:22:00;;;;;;;5.90;3.00;;;10.20;99.90;;;;;;5041622;28;20484;-35
2024/02/18 10:24:26;;;;;;;7.07;2.75;;;10.30;99.90;;;;;;5042260;28;20032;-36
2024/02/18 10:26:54;;;;;;;4.78;2.60;;;10.30;99.90;;;;;;5042113;28;20039;-35
2024/02/18 10:29:19;;;;;;;4.43;3.15;;;10.20;99.90;;;;;;5041876;28;20484;-36
2024/02/18 10:31:45;;;;;;;5.88;2.35;;;10.30;99.90;;;;;;5042407;28;20036;-36
2024/02/18 10:34:11;;;;;;;6.28;3.08;;;10.30;99.90;;;;;;5042316;28;20029;-36
2024/02/18 10:36:37;;;;;;;3.05;2.63;;;10.30;99.90;;;;;;5042137;28;20078;-38
2024/02/18 10:39:12;;;;;;;4.90;2.55;;;10.30;99.90;;;;;;5041486;28;20025;-38
2024/02/18 10:41:44;;;;;;;3.10;2.10;;;10.30;99.90;;;;;;5042537;28;20075;-34
2024/02/18 10:44:16;;;;;;;5.93;2.83;;;10.30;99.90;;;;;;5042624;28;20491;-37
2024/02/18 10:46:46;;;;;;;3.78;2.40;;;10.30;99.90;;;;;;5042748;28;20052;-36
2024/02/18 10:49:19;;;;;;;2.83;2.10;;;10.20;99.90;;;;;;5042168;28;20024;-33
2024/02/18 10:51:48;;;;;;;;;;;10.20;99.90;;;;;;5043001;28;20032;-37
2024/02/18 10:54:32;;;;;;;5.40;2.50;;;10.30;99.90;;;;;;5041313;28;19915;-37
2024/02/18 10:57:00;;;;;;;6.20;2.40;;;10.20;99.90;;;;;;5022597;28;20098;-33
2024/02/18 10:59:33;;;;;;;5.78;2.70;;;10.20;99.90;;;;;;5036707;28;20070;-36
2024/02/18 11:02:10;;;;;;;4.80;2.85;;;10.20;99.90;;;;;;5041281;28;20047;-33
2024/02/18 11:04:41;;;;;;;8.75;2.65;;;10.20;99.90;;;;;;5042818;28;20024;-36
2024/02/18 11:07:08;;;;;;;4.22;2.45;;;10.20;99.90;;;;;;5040751;28;20047;-37
2024/02/18 11:09:36;;;;;;;5.80;2.75;;;10.20;99.90;;;;;;5042160;28;20430;-37
2024/02/18 11:12:03;;;;;;;5.50;2.28;;;10.20;99.90;;;;;;5042267;28;20053;-37
2024/02/18 11:14:29;;;;;;;4.70;2.40;;;10.30;99.90;;;;;;5040815;28;20409;-35
2024/02/18 11:16:55;;;;;;;4.03;2.35;;;10.30;99.90;;;;;;5041824;28;20021;-37
2024/02/18 11:19:22;;;;;;;7.72;2.65;;;10.30;99.90;;;;;;5042195;28;20041;-37
2024/02/18 11:21:51;;;;;;;4.18;2.50;;;10.30;99.90;;;;;;5041452;28;20145;-34
2024/02/18 11:24:17;;;;;;;5.63;2.72;;;10.30;99.90;;;;;;5041517;28;20050;-34
2024/02/18 11:26:43;;;;;;;6.75;2.15;;;10.30;99.90;;;;;;5041980;28;20032;-37
2024/02/18 11:29:09;;;;;;;4.57;1.92;;;10.30;99.90;;;;;;5040168;28;20028;-37
2024/02/18 11:31:35;;;;;;;3.67;2.10;;;10.40;99.90;;;;;;5040703;28;20037;-37
2024/02/18 11:34:01;;;;;;;5.03;2.17;;;10.30;99.90;;;;;;5041003;28;20071;-33
2024/02/18 11:36:29;;;;;;;5.53;2.30;;;10.30;99.90;;;;;;5040640;28;20815;-36
2024/02/18 11:38:57;;;;;;;3.17;1.73;;;10.30;99.90;;;;;;5041891;28;20021;-37
2024/02/18 11:41:31;;;;;;;4.50;2.17;;;10.20;99.90;;;;;;5040639;28;20041;-36
2024/02/18 11:43:59;;;;;;;5.13;2.20;;;10.20;99.90;;;;;;5041376;28;20701;-38
2024/02/18 11:46:29;;;;;;;5.03;2.10;;;10.20;99.90;;;;;;5040817;28;20132;-39
2024/02/18 11:48:56;;;;;;;3.22;1.80;;;10.20;99.90;;;;;;5040745;28;20029;-35
2024/02/18 11:51:22;;;;;;;2.75;1.92;;;10.20;99.90;;;;;;5040728;28;20025;-35
2024/02/18 11:53:50;;;;;;;6.43;1.90;;;10.10;99.90;;;;;;5040587;28;20032;-35
2024/02/18 11:56:16;;;;;;;4.38;2.20;;;10.10;99.90;;;;;;5040462;28;20032;-36
2024/02/18 11:58:44;;;;;;;4.93;2.30;;;10.10;99.90;;;;;;5040935;28;20028;-38
2024/02/18 12:01:10;;;;;;;5.97;2.15;;;10.10;99.90;;;;;;5040447;28;20504;-37
2024/02/18 12:03:36;;;;;;;5.68;2.30;;;10.10;99.90;;;;;;5040909;28;20095;-33
2024/02/18 12:06:03;;;;;;;4.05;2.13;;;10.10;99.90;;;;;;5040935;28;20613;-34
2024/02/18 12:08:32;;;;;;;4.10;2.38;;;10.10;99.90;;;;;;5040326;28;20032;-35
2024/02/18 12:11:03;;;;;;;3.90;2.10;;;10.10;99.90;;;;;;5040227;28;20041;-35
2024/02/18 12:13:32;;;;;;;4.65;2.08;;;10.10;99.90;;;;;;5041548;28;20061;-36
2024/02/18 12:16:00;;;;;;;5.95;2.28;;;10.10;99.90;;;;;;5040954;28;20032;-36
2024/02/18 12:18:27;;;;;;;2.42;2.20;;;10.00;99.90;;;;;;5039805;28;20032;-36
2024/02/18 12:20:55;;;;;;;3.88;2.30;;;10.10;99.90;;;;;;5040800;28;20029;-36
2024/02/18 12:23:25;;;;;;;4.50;3.20;;;10.10;99.90;;;;;;5040724;28;20034;-37
2024/02/18 12:25:52;;;;;;;3.78;2.20;;;10.10;99.90;;;;;;5040105;28;20071;-37
2024/02/18 12:28:19;;;;;;;3.35;2.20;;;10.10;99.90;;;;;;5040957;28;20158;-38
2024/02/18 12:30:45;;;;;;;4.00;2.42;;;10.00;99.90;;;;;;5041581;28;20067;-34
2024/02/18 12:33:15;;;;;;;2.22;1.73;;;10.10;99.90;;;;;;5039365;28;20021;-36
2024/02/18 12:35:41;;;;;;;3.22;2.08;;;10.00;99.90;;;;;;5041227;28;20140;-37
2024/02/18 12:38:11;;;;;;;4.45;2.13;;;10.00;99.90;;;;;;5039437;28;20025;-34
2024/02/18 12:40:39;;;;;;;5.68;2.42;;;10.00;99.90;;;;;;5040306;28;20083;-35
2024/02/18 12:43:05;;;;;;;3.13;2.15;;;10.00;99.90;;;;;;5040239;28;20047;-36
2024/02/18 12:45:34;;;;;;;6.45;2.50;;;10.00;99.90;;;;;;5039474;28;20032;-36